sensor_id;sensor_type;location;lat;lon;timestamp;P1;durP1;ratioP1;P2;durP2;ratioP2
13793;SDS011;31160;49.500;7.772;2024-03-02T00:00:27;7.13;;;3.90;;
13793;SDS011;31160;49.500;7.772;2024-03-02T00:02:54;5.63;;;3.80;;
13793;SDS011;31160;49.500;7.772;2024-03-02T00:05:21;6.53;;;3.93;;
13793;SDS011;31160;49.500;7.772;2024-03-02T00:07:55;8.47;;;3.73;;
13793;SDS011;31160;49.500;7.772;2024-03-02T00:10:26;7.03;;;3.63;;
13793;SDS011;31160;49.500;7.772;2024-03-02T00:13:03;5.67;;;3.07;;
13793;SDS011;31160;49.500;7.772;2024-03-02T00:15:52;6.90;;;3.23;;
13793;SDS011;31160;49.500;7.772;2024-03-02T00:20:54;5.63;;;3.33;;
13793;SDS011;31160;49.500;7.772;2024-03-02T00:23:23;4.33;;;2.47;;
13793;SDS011;31160;49.500;7.772;2024-03-02T00:25:51;4.33;;;2.43;;
13793;SDS011;31160;49.500;7.772;2024-03-02T00:28:20;4.87;;;2.03;;
13793;SDS011;31160;49.500;7.772;2024-03-02T00:33:23;2.80;;;1.90;;
13793;SDS011;31160;49.500;7.772;2024-03-02T00:35:52;5.67;;;2.13;;
13793;SDS011;31160;49.500;7.772;2024-03-02T00:38:19;3.20;;;2.20;;
13793;SDS011;31160;49.500;7.772;2024-03-02T00:40:46;3.83;;;2.13;;
13793;SDS011;31160;49.500;7.772;2024-03-02T00:46:18;4.03;;;2.13;;
13793;SDS011;31160;49.500;7.772;2024-03-02T00:48:55;6.23;;;2.40;;
13793;SDS011;31160;49.500;7.772;2024-03-02T00:51:23;4.57;;;2.37;;
13793;SDS011;31160;49.500;7.772;2024-03-02T00:53:52;4.97;;;2.27;;
13793;SDS011;31160;49.500;7.772;2024-03-02T00:56:23;2.60;;;1.53;;
13793;SDS011;31160;49.500;7.772;2024-03-02T00:58:50;3.03;;;1.70;;
13793;SDS011;31160;49.500;7.772;2024-03-02T01:01:18;3.10;;;1.50;;
13793;SDS011;31160;49.500;7.772;2024-03-02T01:03:49;2.87;;;1.70;;
13793;SDS011;31160;49.500;7.772;2024-03-02T01:06:16;5.47;;;2.27;;
13793;SDS011;31160;49.500;7.772;2024-03-02T01:08:43;6.03;;;2.67;;
13793;SDS011;31160;49.500;7.772;2024-03-02T01:11:11;5.73;;;2.23;;
13793;SDS011;31160;49.500;7.772;2024-03-02T01:13:37;3.80;;;2.23;;
13793;SDS011;31160;49.500;7.772;2024-03-02T01:16:04;3.43;;;1.93;;
13793;SDS011;31160;49.500;7.772;2024-03-02T01:18:31;3.03;;;2.17;;
13793;SDS011;31160;49.500;7.772;2024-03-02T01:20:58;5.77;;;2.30;;
13793;SDS011;31160;49.500;7.772;2024-03-02T01:23:25;4.13;;;2.23;;
13793;SDS011;31160;49.500;7.772;2024-03-02T01:25:52;4.13;;;1.70;;
13793;SDS011;31160;49.500;7.772;2024-03-02T01:28:19;2.33;;;1.33;;
13793;SDS011;31160;49.500;7.772;2024-03-02T01:30:47;4.00;;;1.70;;
13793;SDS011;31160;49.500;7.772;2024-03-02T01:33:15;3.83;;;1.63;;
13793;SDS011;31160;49.500;7.772;2024-03-02T01:35:45;4.20;;;1.90;;
13793;SDS011;31160;49.500;7.772;2024-03-02T01:38:12;5.10;;;1.83;;
13793;SDS011;31160;49.500;7.772;2024-03-02T01:40:39;4.00;;;2.47;;
13793;SDS011;31160;49.500;7.772;2024-03-02T01:43:06;4.00;;;2.03;;
13793;SDS011;31160;49.500;7.772;2024-03-02T01:45:33;5.73;;;1.43;;
13793;SDS011;31160;49.500;7.772;2024-03-02T01:48:02;1.97;;;1.43;;
13793;SDS011;31160;49.500;7.772;2024-03-02T01:50:34;2.30;;;1.37;;
13793;SDS011;31160;49.500;7.772;2024-03-02T01:53:01;2.70;;;1.43;;
13793;SDS011;31160;49.500;7.772;2024-03-02T01:55:29;2.23;;;1.37;;
13793;SDS011;31160;49.500;7.772;2024-03-02T01:57:57;2.07;;;1.40;;
13793;SDS011;31160;49.500;7.772;2024-03-02T02:00:25;2.40;;;1.57;;
13793;SDS011;31160;49.500;7.772;2024-03-02T02:02:53;2.40;;;1.47;;
13793;SDS011;31160;49.500;7.772;2024-03-02T02:05:21;2.27;;;1.23;;
13793;SDS011;31160;49.500;7.772;2024-03-02T02:07:48;3.13;;;1.20;;
13793;SDS011;31160;49.500;7.772;2024-03-02T02:10:15;2.27;;;1.30;;
13793;SDS011;31160;49.500;7.772;2024-03-02T02:12:42;2.13;;;1.40;;
13793;SDS011;31160;49.500;7.772;2024-03-02T02:15:21;2.87;;;1.30;;
13793;SDS011;31160;49.500;7.772;2024-03-02T02:17:51;2.27;;;1.23;;
13793;SDS011;31160;49.500;7.772;2024-03-02T02:20:19;5.57;;;1.27;;
13793;SDS011;31160;49.500;7.772;2024-03-02T02:23:01;1.77;;;1.10;;
13793;SDS011;31160;49.500;7.772;2024-03-02T02:25:32;10.27;;;1.30;;
13793;SDS011;31160;49.500;7.772;2024-03-02T02:27:59;2.03;;;1.13;;
13793;SDS011;31160;49.500;7.772;2024-03-02T02:30:26;3.23;;;1.47;;
13793;SDS011;31160;49.500;7.772;2024-03-02T02:32:55;2.90;;;1.20;;
13793;SDS011;31160;49.500;7.772;2024-03-02T02:35:22;2.33;;;1.50;;
13793;SDS011;31160;49.500;7.772;2024-03-02T02:37:52;3.73;;;1.57;;
13793;SDS011;31160;49.500;7.772;2024-03-02T02:40:21;2.23;;;1.27;;
13793;SDS011;31160;49.500;7.772;2024-03-02T02:42:48;1.70;;;1.30;;
13793;SDS011;31160;49.500;7.772;2024-03-02T02:45:16;4.60;;;1.27;;
13793;SDS011;31160;49.500;7.772;2024-03-02T02:47:43;2.10;;;1.27;;
13793;SDS011;31160;49.500;7.772;2024-03-02T02:50:11;3.00;;;1.23;;
13793;SDS011;31160;49.500;7.772;2024-03-02T02:52:39;2.53;;;1.30;;
13793;SDS011;31160;49.500;7.772;2024-03-02T02:55:08;1.83;;;1.20;;
13793;SDS011;31160;49.500;7.772;2024-03-02T02:57:38;3.37;;;1.60;;
13793;SDS011;31160;49.500;7.772;2024-03-02T03:00:09;2.27;;;1.33;;
13793;SDS011;31160;49.500;7.772;2024-03-02T03:02:43;2.77;;;1.70;;
13793;SDS011;31160;49.500;7.772;2024-03-02T03:05:13;2.63;;;1.33;;
13793;SDS011;31160;49.500;7.772;2024-03-02T03:07:41;2.10;;;1.60;;
13793;SDS011;31160;49.500;7.772;2024-03-02T03:10:08;3.07;;;1.30;;
13793;SDS011;31160;49.500;7.772;2024-03-02T03:12:36;1.57;;;1.10;;
13793;SDS011;31160;49.500;7.772;2024-03-02T03:15:03;2.00;;;1.40;;
13793;SDS011;31160;49.500;7.772;2024-03-02T03:17:31;2.23;;;1.10;;
13793;SDS011;31160;49.500;7.772;2024-03-02T03:19:58;2.70;;;0.97;;
13793;SDS011;31160;49.500;7.772;2024-03-02T03:22:25;2.33;;;1.00;;
13793;SDS011;31160;49.500;7.772;2024-03-02T03:24:52;2.50;;;1.03;;
13793;SDS011;31160;49.500;7.772;2024-03-02T03:27:19;2.40;;;1.50;;
13793;SDS011;31160;49.500;7.772;2024-03-02T03:29:46;3.70;;;1.80;;
13793;SDS011;31160;49.500;7.772;2024-03-02T03:32:13;3.53;;;1.83;;
13793;SDS011;31160;49.500;7.772;2024-03-02T03:34:40;2.70;;;1.73;;
13793;SDS011;31160;49.500;7.772;2024-03-02T03:37:07;4.47;;;1.70;;
13793;SDS011;31160;49.500;7.772;2024-03-02T03:39:34;2.97;;;1.53;;
13793;SDS011;31160;49.500;7.772;2024-03-02T03:42:02;2.40;;;1.63;;
13793;SDS011;31160;49.500;7.772;2024-03-02T03:44:29;2.27;;;1.43;;
13793;SDS011;31160;49.500;7.772;2024-03-02T03:46:56;1.13;;;0.93;;
13793;SDS011;31160;49.500;7.772;2024-03-02T03:49:23;1.97;;;1.40;;
13793;SDS011;31160;49.500;7.772;2024-03-02T03:51:50;2.63;;;1.60;;
13793;SDS011;31160;49.500;7.772;2024-03-02T03:54:17;3.77;;;1.27;;
13793;SDS011;31160;49.500;7.772;2024-03-02T03:56:44;2.07;;;1.40;;
13793;SDS011;31160;49.500;7.772;2024-03-02T03:59:10;3.93;;;2.30;;
13793;SDS011;31160;49.500;7.772;2024-03-02T04:01:37;10.83;;;6.03;;
13793;SDS011;31160;49.500;7.772;2024-03-02T04:04:04;20.23;;;8.63;;
13793;SDS011;31160;49.500;7.772;2024-03-02T04:06:31;12.73;;;6.70;;
13793;SDS011;31160;49.500;7.772;2024-03-02T04:08:58;5.83;;;3.03;;
13793;SDS011;31160;49.500;7.772;2024-03-02T04:11:25;6.50;;;3.83;;
13793;SDS011;31160;49.500;7.772;2024-03-02T04:13:52;6.50;;;3.70;;
13793;SDS011;31160;49.500;7.772;2024-03-02T04:16:22;3.83;;;2.20;;
13793;SDS011;31160;49.500;7.772;2024-03-02T04:18:49;5.43;;;1.80;;
13793;SDS011;31160;49.500;7.772;2024-03-02T04:21:16;2.97;;;1.80;;
13793;SDS011;31160;49.500;7.772;2024-03-02T04:23:42;2.80;;;1.70;;
13793;SDS011;31160;49.500;7.772;2024-03-02T04:26:09;2.77;;;1.60;;
13793;SDS011;31160;49.500;7.772;2024-03-02T04:28:36;1.93;;;1.63;;
13793;SDS011;31160;49.500;7.772;2024-03-02T04:31:03;4.00;;;2.20;;
13793;SDS011;31160;49.500;7.772;2024-03-02T04:33:30;3.47;;;1.80;;
13793;SDS011;31160;49.500;7.772;2024-03-02T04:35:56;4.43;;;2.17;;
13793;SDS011;31160;49.500;7.772;2024-03-02T04:38:24;2.97;;;1.27;;
13793;SDS011;31160;49.500;7.772;2024-03-02T04:40:50;2.00;;;1.10;;
13793;SDS011;31160;49.500;7.772;2024-03-02T04:43:17;1.83;;;1.30;;
13793;SDS011;31160;49.500;7.772;2024-03-02T04:45:45;2.20;;;1.20;;
13793;SDS011;31160;49.500;7.772;2024-03-02T04:48:12;2.10;;;1.30;;
13793;SDS011;31160;49.500;7.772;2024-03-02T04:50:40;2.20;;;1.30;;
13793;SDS011;31160;49.500;7.772;2024-03-02T04:53:07;1.97;;;1.00;;
13793;SDS011;31160;49.500;7.772;2024-03-02T04:55:34;1.67;;;1.40;;
13793;SDS011;31160;49.500;7.772;2024-03-02T04:58:01;2.40;;;1.33;;
13793;SDS011;31160;49.500;7.772;2024-03-02T05:00:28;2.70;;;1.70;;
13793;SDS011;31160;49.500;7.772;2024-03-02T05:02:55;4.30;;;2.30;;
13793;SDS011;31160;49.500;7.772;2024-03-02T05:05:21;4.53;;;1.97;;
13793;SDS011;31160;49.500;7.772;2024-03-02T05:07:49;3.97;;;2.00;;
13793;SDS011;31160;49.500;7.772;2024-03-02T05:10:15;4.13;;;2.53;;
13793;SDS011;31160;49.500;7.772;2024-03-02T05:12:42;3.43;;;2.07;;
13793;SDS011;31160;49.500;7.772;2024-03-02T05:15:10;2.50;;;1.60;;
13793;SDS011;31160;49.500;7.772;2024-03-02T05:17:38;2.37;;;1.50;;
13793;SDS011;31160;49.500;7.772;2024-03-02T05:20:06;2.13;;;1.60;;
13793;SDS011;31160;49.500;7.772;2024-03-02T05:22:36;3.57;;;1.67;;
13793;SDS011;31160;49.500;7.772;2024-03-02T05:25:04;3.17;;;1.40;;
13793;SDS011;31160;49.500;7.772;2024-03-02T05:27:31;2.27;;;1.30;;
13793;SDS011;31160;49.500;7.772;2024-03-02T05:29:59;2.07;;;1.43;;
13793;SDS011;31160;49.500;7.772;2024-03-02T05:32:26;3.20;;;1.90;;
13793;SDS011;31160;49.500;7.772;2024-03-02T05:34:53;2.70;;;1.40;;
13793;SDS011;31160;49.500;7.772;2024-03-02T05:37:21;3.00;;;1.50;;
13793;SDS011;31160;49.500;7.772;2024-03-02T05:39:48;2.43;;;1.40;;
13793;SDS011;31160;49.500;7.772;2024-03-02T05:42:15;2.37;;;1.80;;
13793;SDS011;31160;49.500;7.772;2024-03-02T05:44:43;3.93;;;2.70;;
13793;SDS011;31160;49.500;7.772;2024-03-02T05:47:10;4.80;;;2.23;;
13793;SDS011;31160;49.500;7.772;2024-03-02T05:49:36;4.77;;;3.00;;
13793;SDS011;31160;49.500;7.772;2024-03-02T05:52:03;4.57;;;2.47;;
13793;SDS011;31160;49.500;7.772;2024-03-02T05:54:30;6.37;;;2.47;;
13793;SDS011;31160;49.500;7.772;2024-03-02T05:56:57;3.70;;;2.20;;
13793;SDS011;31160;49.500;7.772;2024-03-02T05:59:42;2.37;;;1.60;;
13793;SDS011;31160;49.500;7.772;2024-03-02T06:02:12;2.87;;;1.90;;
13793;SDS011;31160;49.500;7.772;2024-03-02T06:04:39;3.90;;;2.10;;
13793;SDS011;31160;49.500;7.772;2024-03-02T06:07:06;3.50;;;2.20;;
13793;SDS011;31160;49.500;7.772;2024-03-02T06:09:33;3.27;;;2.50;;
13793;SDS011;31160;49.500;7.772;2024-03-02T06:12:00;3.70;;;2.00;;
13793;SDS011;31160;49.500;7.772;2024-03-02T06:14:26;3.40;;;2.30;;
13793;SDS011;31160;49.500;7.772;2024-03-02T06:16:53;3.67;;;2.70;;
13793;SDS011;31160;49.500;7.772;2024-03-02T06:19:20;4.07;;;2.40;;
13793;SDS011;31160;49.500;7.772;2024-03-02T06:21:47;4.47;;;2.40;;
13793;SDS011;31160;49.500;7.772;2024-03-02T06:24:13;4.27;;;2.40;;
13793;SDS011;31160;49.500;7.772;2024-03-02T06:26:40;4.50;;;2.00;;
13793;SDS011;31160;49.500;7.772;2024-03-02T06:29:07;3.20;;;2.20;;
13793;SDS011;31160;49.500;7.772;2024-03-02T06:31:34;4.20;;;2.30;;
13793;SDS011;31160;49.500;7.772;2024-03-02T06:34:01;5.03;;;2.20;;
13793;SDS011;31160;49.500;7.772;2024-03-02T06:36:30;2.80;;;2.10;;
13793;SDS011;31160;49.500;7.772;2024-03-02T06:38:56;4.53;;;1.90;;
13793;SDS011;31160;49.500;7.772;2024-03-02T06:41:23;3.20;;;1.73;;
13793;SDS011;31160;49.500;7.772;2024-03-02T06:43:50;4.50;;;2.43;;
13793;SDS011;31160;49.500;7.772;2024-03-02T06:46:20;4.97;;;2.40;;
13793;SDS011;31160;49.500;7.772;2024-03-02T06:48:47;2.97;;;2.30;;
13793;SDS011;31160;49.500;7.772;2024-03-02T06:51:14;3.87;;;2.00;;
13793;SDS011;31160;49.500;7.772;2024-03-02T06:53:42;7.77;;;2.43;;
13793;SDS011;31160;49.500;7.772;2024-03-02T06:56:09;2.70;;;2.10;;
13793;SDS011;31160;49.500;7.772;2024-03-02T06:58:35;3.43;;;2.07;;
13793;SDS011;31160;49.500;7.772;2024-03-02T07:01:02;7.27;;;2.20;;
13793;SDS011;31160;49.500;7.772;2024-03-02T07:03:29;3.43;;;2.50;;
13793;SDS011;31160;49.500;7.772;2024-03-02T07:05:56;5.10;;;2.23;;
13793;SDS011;31160;49.500;7.772;2024-03-02T07:08:23;4.70;;;2.63;;
13793;SDS011;31160;49.500;7.772;2024-03-02T07:10:50;4.70;;;2.60;;
13793;SDS011;31160;49.500;7.772;2024-03-02T07:13:17;2.70;;;2.07;;
13793;SDS011;31160;49.500;7.772;2024-03-02T07:15:43;4.60;;;2.80;;
13793;SDS011;31160;49.500;7.772;2024-03-02T07:18:30;3.93;;;2.43;;
13793;SDS011;31160;49.500;7.772;2024-03-02T07:20:57;4.10;;;2.50;;
13793;SDS011;31160;49.500;7.772;2024-03-02T07:23:27;5.43;;;3.67;;
13793;SDS011;31160;49.500;7.772;2024-03-02T07:25:54;9.60;;;5.00;;
13793;SDS011;31160;49.500;7.772;2024-03-02T07:28:25;5.77;;;4.00;;
13793;SDS011;31160;49.500;7.772;2024-03-02T07:30:59;6.77;;;3.50;;
13793;SDS011;31160;49.500;7.772;2024-03-02T07:33:28;5.90;;;3.17;;
13793;SDS011;31160;49.500;7.772;2024-03-02T07:35:55;4.80;;;3.17;;
13793;SDS011;31160;49.500;7.772;2024-03-02T07:38:22;5.43;;;2.80;;
13793;SDS011;31160;49.500;7.772;2024-03-02T07:40:49;3.90;;;2.70;;
13793;SDS011;31160;49.500;7.772;2024-03-02T07:43:19;4.70;;;2.70;;
13793;SDS011;31160;49.500;7.772;2024-03-02T07:45:47;4.30;;;2.33;;
13793;SDS011;31160;49.500;7.772;2024-03-02T07:48:14;4.80;;;2.87;;
13793;SDS011;31160;49.500;7.772;2024-03-02T07:50:41;4.47;;;2.50;;
13793;SDS011;31160;49.500;7.772;2024-03-02T07:53:09;6.13;;;2.73;;
13793;SDS011;31160;49.500;7.772;2024-03-02T07:55:36;4.30;;;2.63;;
13793;SDS011;31160;49.500;7.772;2024-03-02T07:58:03;5.17;;;3.00;;
13793;SDS011;31160;49.500;7.772;2024-03-02T08:00:30;5.30;;;2.70;;
13793;SDS011;31160;49.500;7.772;2024-03-02T08:02:57;6.40;;;2.53;;
13793;SDS011;31160;49.500;7.772;2024-03-02T08:05:23;3.67;;;2.50;;
13793;SDS011;31160;49.500;7.772;2024-03-02T08:07:50;4.40;;;2.43;;
13793;SDS011;31160;49.500;7.772;2024-03-02T08:10:20;4.83;;;2.90;;
13793;SDS011;31160;49.500;7.772;2024-03-02T08:12:47;9.33;;;4.57;;
13793;SDS011;31160;49.500;7.772;2024-03-02T08:15:14;9.13;;;4.40;;
13793;SDS011;31160;49.500;7.772;2024-03-02T08:17:41;9.27;;;3.83;;
13793;SDS011;31160;49.500;7.772;2024-03-02T08:20:11;8.23;;;3.80;;
13793;SDS011;31160;49.500;7.772;2024-03-02T08:22:39;10.00;;;4.73;;
13793;SDS011;31160;49.500;7.772;2024-03-02T08:25:06;6.73;;;4.03;;
13793;SDS011;31160;49.500;7.772;2024-03-02T08:27:34;8.60;;;5.20;;
13793;SDS011;31160;49.500;7.772;2024-03-02T08:30:01;8.63;;;5.27;;
13793;SDS011;31160;49.500;7.772;2024-03-02T08:32:34;15.53;;;6.90;;
13793;SDS011;31160;49.500;7.772;2024-03-02T08:35:01;8.97;;;5.23;;
13793;SDS011;31160;49.500;7.772;2024-03-02T08:37:28;11.47;;;6.13;;
13793;SDS011;31160;49.500;7.772;2024-03-02T08:39:55;11.00;;;5.60;;
13793;SDS011;31160;49.500;7.772;2024-03-02T08:42:22;7.13;;;4.57;;
13793;SDS011;31160;49.500;7.772;2024-03-02T08:44:49;11.43;;;4.33;;
13793;SDS011;31160;49.500;7.772;2024-03-02T08:47:16;11.20;;;4.70;;
13793;SDS011;31160;49.500;7.772;2024-03-02T08:49:43;8.20;;;3.97;;
13793;SDS011;31160;49.500;7.772;2024-03-02T08:52:10;6.40;;;4.23;;
13793;SDS011;31160;49.500;7.772;2024-03-02T08:54:37;4.90;;;3.37;;
13793;SDS011;31160;49.500;7.772;2024-03-02T08:57:04;6.90;;;4.20;;
13793;SDS011;31160;49.500;7.772;2024-03-02T08:59:32;6.83;;;3.57;;
13793;SDS011;31160;49.500;7.772;2024-03-02T09:01:59;8.30;;;4.50;;
13793;SDS011;31160;49.500;7.772;2024-03-02T09:04:26;8.70;;;5.60;;
13793;SDS011;31160;49.500;7.772;2024-03-02T09:06:58;9.40;;;5.10;;
13793;SDS011;31160;49.500;7.772;2024-03-02T09:09:25;10.93;;;7.10;;
13793;SDS011;31160;49.500;7.772;2024-03-02T09:11:52;10.03;;;5.73;;
13793;SDS011;31160;49.500;7.772;2024-03-02T09:14:21;9.27;;;5.00;;
13793;SDS011;31160;49.500;7.772;2024-03-02T09:16:48;9.73;;;3.47;;
13793;SDS011;31160;49.500;7.772;2024-03-02T09:19:15;8.53;;;3.00;;
13793;SDS011;31160;49.500;7.772;2024-03-02T09:21:42;5.67;;;3.40;;
13793;SDS011;31160;49.500;7.772;2024-03-02T09:24:10;6.37;;;3.00;;
13793;SDS011;31160;49.500;7.772;2024-03-02T09:26:38;6.50;;;3.03;;
13793;SDS011;31160;49.500;7.772;2024-03-02T09:29:05;5.47;;;2.37;;
13793;SDS011;31160;49.500;7.772;2024-03-02T09:31:32;9.07;;;3.00;;
13793;SDS011;31160;49.500;7.772;2024-03-02T09:33:59;5.93;;;2.83;;
13793;SDS011;31160;49.500;7.772;2024-03-02T09:36:26;4.87;;;2.50;;
13793;SDS011;31160;49.500;7.772;2024-03-02T09:38:52;5.37;;;2.27;;
13793;SDS011;31160;49.500;7.772;2024-03-02T09:41:19;4.70;;;2.50;;
13793;SDS011;31160;49.500;7.772;2024-03-02T09:43:46;2.67;;;2.10;;
13793;SDS011;31160;49.500;7.772;2024-03-02T09:46:13;4.93;;;2.40;;
13793;SDS011;31160;49.500;7.772;2024-03-02T09:48:41;5.47;;;2.87;;
13793;SDS011;31160;49.500;7.772;2024-03-02T09:51:10;4.77;;;2.20;;
13793;SDS011;31160;49.500;7.772;2024-03-02T09:53:37;2.50;;;1.53;;
13793;SDS011;31160;49.500;7.772;2024-03-02T09:56:04;4.37;;;1.80;;
13793;SDS011;31160;49.500;7.772;2024-03-02T09:58:31;3.00;;;1.80;;
13793;SDS011;31160;49.500;7.772;2024-03-02T10:00:57;4.93;;;2.50;;
13793;SDS011;31160;49.500;7.772;2024-03-02T10:03:24;3.63;;;1.73;;
13793;SDS011;31160;49.500;7.772;2024-03-02T10:05:53;2.73;;;1.10;;
13793;SDS011;31160;49.500;7.772;2024-03-02T10:08:19;1.57;;;1.10;;
13793;SDS011;31160;49.500;7.772;2024-03-02T10:10:46;1.87;;;1.10;;
13793;SDS011;31160;49.500;7.772;2024-03-02T10:13:13;1.80;;;1.33;;
13793;SDS011;31160;49.500;7.772;2024-03-02T10:15:40;1.63;;;1.10;;
13793;SDS011;31160;49.500;7.772;2024-03-02T10:18:08;2.30;;;0.90;;
13793;SDS011;31160;49.500;7.772;2024-03-02T10:20:38;1.37;;;0.60;;
13793;SDS011;31160;49.500;7.772;2024-03-02T10:23:15;2.63;;;0.73;;
13793;SDS011;31160;49.500;7.772;2024-03-02T10:25:43;2.03;;;0.63;;
13793;SDS011;31160;49.500;7.772;2024-03-02T10:28:23;1.47;;;0.70;;
13793;SDS011;31160;49.500;7.772;2024-03-02T10:30:50;2.90;;;0.80;;
13793;SDS011;31160;49.500;7.772;2024-03-02T10:33:19;2.87;;;0.60;;
13793;SDS011;31160;49.500;7.772;2024-03-02T10:35:47;1.80;;;0.70;;
13793;SDS011;31160;49.500;7.772;2024-03-02T10:38:16;1.00;;;0.60;;
13793;SDS011;31160;49.500;7.772;2024-03-02T10:40:46;1.23;;;0.70;;
13793;SDS011;31160;49.500;7.772;2024-03-02T10:43:14;1.93;;;0.87;;
13793;SDS011;31160;49.500;7.772;2024-03-02T10:45:43;1.63;;;0.53;;
13793;SDS011;31160;49.500;7.772;2024-03-02T10:48:12;1.00;;;0.80;;
13793;SDS011;31160;49.500;7.772;2024-03-02T10:50:39;0.87;;;0.47;;
13793;SDS011;31160;49.500;7.772;2024-03-02T10:53:05;1.23;;;0.80;;
13793;SDS011;31160;49.500;7.772;2024-03-02T10:55:32;1.23;;;0.60;;
13793;SDS011;31160;49.500;7.772;2024-03-02T10:58:00;1.23;;;0.90;;
13793;SDS011;31160;49.500;7.772;2024-03-02T11:00:33;1.70;;;1.10;;
13793;SDS011;31160;49.500;7.772;2024-03-02T11:03:07;2.37;;;0.63;;
13793;SDS011;31160;49.500;7.772;2024-03-02T11:05:39;1.20;;;0.60;;
13793;SDS011;31160;49.500;7.772;2024-03-02T11:08:12;0.97;;;0.50;;
13793;SDS011;31160;49.500;7.772;2024-03-02T11:10:46;1.10;;;0.60;;
13793;SDS011;31160;49.500;7.772;2024-03-02T11:13:26;2.40;;;0.40;;
13793;SDS011;31160;49.500;7.772;2024-03-02T11:15:59;0.80;;;0.70;;
13793;SDS011;31160;49.500;7.772;2024-03-02T11:18:32;0.60;;;0.30;;
13793;SDS011;31160;49.500;7.772;2024-03-02T11:21:00;2.57;;;0.80;;
13793;SDS011;31160;49.500;7.772;2024-03-02T11:23:33;3.97;;;1.10;;
13793;SDS011;31160;49.500;7.772;2024-03-02T11:26:17;0.90;;;0.50;;
13793;SDS011;31160;49.500;7.772;2024-03-02T11:28:47;0.70;;;0.50;;
13793;SDS011;31160;49.500;7.772;2024-03-02T11:31:14;1.13;;;0.50;;
13793;SDS011;31160;49.500;7.772;2024-03-02T11:33:41;2.53;;;0.50;;
13793;SDS011;31160;49.500;7.772;2024-03-02T11:36:09;1.30;;;0.60;;
13793;SDS011;31160;49.500;7.772;2024-03-02T11:38:38;1.27;;;0.70;;
13793;SDS011;31160;49.500;7.772;2024-03-02T11:41:06;1.10;;;0.43;;
13793;SDS011;31160;49.500;7.772;2024-03-02T11:43:38;0.83;;;0.60;;
13793;SDS011;31160;49.500;7.772;2024-03-02T11:46:06;2.30;;;0.60;;
13793;SDS011;31160;49.500;7.772;2024-03-02T11:48:36;3.50;;;0.50;;
13793;SDS011;31160;49.500;7.772;2024-03-02T11:51:04;1.77;;;0.50;;
13793;SDS011;31160;49.500;7.772;2024-03-02T11:53:31;0.77;;;0.53;;
13793;SDS011;31160;49.500;7.772;2024-03-02T11:56:02;1.87;;;0.27;;
13793;SDS011;31160;49.500;7.772;2024-03-02T11:58:29;1.63;;;0.60;;
13793;SDS011;31160;49.500;7.772;2024-03-02T12:00:56;0.67;;;0.37;;
13793;SDS011;31160;49.500;7.772;2024-03-02T12:03:24;0.47;;;0.30;;
13793;SDS011;31160;49.500;7.772;2024-03-02T12:05:53;0.63;;;0.40;;
13793;SDS011;31160;49.500;7.772;2024-03-02T12:08:20;0.60;;;0.40;;
13793;SDS011;31160;49.500;7.772;2024-03-02T12:11:00;3.50;;;0.30;;
13793;SDS011;31160;49.500;7.772;2024-03-02T12:13:30;0.70;;;0.50;;
13793;SDS011;31160;49.500;7.772;2024-03-02T12:15:57;0.67;;;0.40;;
13793;SDS011;31160;49.500;7.772;2024-03-02T12:18:24;0.40;;;0.23;;
13793;SDS011;31160;49.500;7.772;2024-03-02T12:20:52;2.00;;;0.50;;
13793;SDS011;31160;49.500;7.772;2024-03-02T12:23:19;1.40;;;0.40;;
13793;SDS011;31160;49.500;7.772;2024-03-02T12:25:46;0.70;;;0.33;;
13793;SDS011;31160;49.500;7.772;2024-03-02T12:28:13;0.90;;;0.40;;
13793;SDS011;31160;49.500;7.772;2024-03-02T12:30:40;1.67;;;0.37;;
13793;SDS011;31160;49.500;7.772;2024-03-02T12:33:07;1.37;;;0.40;;
13793;SDS011;31160;49.500;7.772;2024-03-02T12:35:34;0.40;;;0.30;;
13793;SDS011;31160;49.500;7.772;2024-03-02T12:38:02;0.90;;;0.30;;
13793;SDS011;31160;49.500;7.772;2024-03-02T12:40:30;0.40;;;0.20;;
13793;SDS011;31160;49.500;7.772;2024-03-02T12:42:57;0.57;;;0.33;;
13793;SDS011;31160;49.500;7.772;2024-03-02T12:45:24;0.40;;;0.30;;
13793;SDS011;31160;49.500;7.772;2024-03-02T12:47:52;0.60;;;0.20;;
13793;SDS011;31160;49.500;7.772;2024-03-02T12:50:19;0.83;;;0.30;;
13793;SDS011;31160;49.500;7.772;2024-03-02T12:52:53;0.70;;;0.40;;
13793;SDS011;31160;49.500;7.772;2024-03-02T12:55:21;1.63;;;0.30;;
13793;SDS011;31160;49.500;7.772;2024-03-02T12:57:50;2.20;;;0.40;;
13793;SDS011;31160;49.500;7.772;2024-03-02T13:00:19;1.50;;;0.70;;
13793;SDS011;31160;49.500;7.772;2024-03-02T13:02:46;0.80;;;0.50;;
13793;SDS011;31160;49.500;7.772;2024-03-02T13:05:18;0.60;;;0.30;;
13793;SDS011;31160;49.500;7.772;2024-03-02T13:07:50;0.90;;;0.50;;
13793;SDS011;31160;49.500;7.772;2024-03-02T13:10:16;0.93;;;0.30;;
13793;SDS011;31160;49.500;7.772;2024-03-02T13:12:45;0.70;;;0.40;;
13793;SDS011;31160;49.500;7.772;2024-03-02T13:15:12;2.07;;;0.40;;
13793;SDS011;31160;49.500;7.772;2024-03-02T13:17:44;1.57;;;0.60;;
13793;SDS011;31160;49.500;7.772;2024-03-02T13:20:15;5.60;;;2.40;;
13793;SDS011;31160;49.500;7.772;2024-03-02T13:22:44;1.37;;;0.63;;
13793;SDS011;31160;49.500;7.772;2024-03-02T13:25:11;1.67;;;0.73;;
13793;SDS011;31160;49.500;7.772;2024-03-02T13:27:38;3.00;;;1.30;;
13793;SDS011;31160;49.500;7.772;2024-03-02T13:30:06;0.90;;;0.60;;
13793;SDS011;31160;49.500;7.772;2024-03-02T13:32:35;1.73;;;0.53;;
13793;SDS011;31160;49.500;7.772;2024-03-02T13:35:02;0.50;;;0.30;;
13793;SDS011;31160;49.500;7.772;2024-03-02T13:37:29;0.90;;;0.40;;
13793;SDS011;31160;49.500;7.772;2024-03-02T13:39:56;0.40;;;0.30;;
13793;SDS011;31160;49.500;7.772;2024-03-02T13:42:23;0.70;;;0.40;;
13793;SDS011;31160;49.500;7.772;2024-03-02T13:44:50;0.40;;;0.20;;
13793;SDS011;31160;49.500;7.772;2024-03-02T13:47:18;0.50;;;0.23;;
13793;SDS011;31160;49.500;7.772;2024-03-02T13:49:45;0.80;;;0.40;;
13793;SDS011;31160;49.500;7.772;2024-03-02T13:52:13;0.20;;;0.20;;
13793;SDS011;31160;49.500;7.772;2024-03-02T13:54:41;0.37;;;0.30;;
13793;SDS011;31160;49.500;7.772;2024-03-02T13:57:09;0.30;;;0.20;;
13793;SDS011;31160;49.500;7.772;2024-03-02T13:59:37;1.03;;;0.30;;
13793;SDS011;31160;49.500;7.772;2024-03-02T14:02:05;0.37;;;0.30;;
13793;SDS011;31160;49.500;7.772;2024-03-02T14:04:35;0.50;;;0.30;;
13793;SDS011;31160;49.500;7.772;2024-03-02T14:07:03;0.50;;;0.30;;
13793;SDS011;31160;49.500;7.772;2024-03-02T14:09:33;0.47;;;0.30;;
13793;SDS011;31160;49.500;7.772;2024-03-02T14:12:02;0.90;;;0.43;;
13793;SDS011;31160;49.500;7.772;2024-03-02T14:14:29;0.50;;;0.27;;
13793;SDS011;31160;49.500;7.772;2024-03-02T14:16:56;0.80;;;0.30;;
13793;SDS011;31160;49.500;7.772;2024-03-02T14:19:26;0.83;;;0.30;;
13793;SDS011;31160;49.500;7.772;2024-03-02T14:21:53;0.60;;;0.30;;
13793;SDS011;31160;49.500;7.772;2024-03-02T14:24:20;0.53;;;0.30;;
13793;SDS011;31160;49.500;7.772;2024-03-02T14:26:50;0.47;;;0.30;;
13793;SDS011;31160;49.500;7.772;2024-03-02T14:29:18;0.47;;;0.20;;
13793;SDS011;31160;49.500;7.772;2024-03-02T14:31:45;0.40;;;0.30;;
13793;SDS011;31160;49.500;7.772;2024-03-02T14:34:15;0.40;;;0.30;;
13793;SDS011;31160;49.500;7.772;2024-03-02T14:36:42;1.10;;;0.50;;
13793;SDS011;31160;49.500;7.772;2024-03-02T14:39:10;0.70;;;0.30;;
13793;SDS011;31160;49.500;7.772;2024-03-02T14:41:37;0.50;;;0.30;;
13793;SDS011;31160;49.500;7.772;2024-03-02T14:44:04;0.70;;;0.30;;
13793;SDS011;31160;49.500;7.772;2024-03-02T14:46:31;0.57;;;0.30;;
13793;SDS011;31160;49.500;7.772;2024-03-02T14:48:58;0.50;;;0.20;;
13793;SDS011;31160;49.500;7.772;2024-03-02T14:51:25;0.73;;;0.43;;
13793;SDS011;31160;49.500;7.772;2024-03-02T14:53:52;0.90;;;0.50;;
13793;SDS011;31160;49.500;7.772;2024-03-02T14:56:19;0.80;;;0.30;;
13793;SDS011;31160;49.500;7.772;2024-03-02T14:58:46;1.37;;;0.47;;
13793;SDS011;31160;49.500;7.772;2024-03-02T15:01:13;0.43;;;0.30;;